Pittsburgh International Airport
KPIT : rendu visible

Aérodrome :











RETROUVEZ-NOUS SUR...

 
LOGIN :

S'inscrire | Disclaimer

   EN    FR    IT 

 









Légende :    VFR   VFR Marginal   IFR   IFR Intensif   IFR Très Intensif
Visi : 
Plafond : 
>= 8 km
>= 3000ft
5 à 8 km
1000 à 3000 ft
1500m à 5 km
500 à 1000 ft
800 à 1500m
200 à 500 ft
< 800m
< 200 ft
Symboles :   Orages  Brouillard  Fortes neiges  Fortes précipitations  Vent > 20 kt






- Altitude de l'aérodrome : 1203 ft
- Code IATA : PIT


KPIT - Pittsburgh International

DERNIER METAR :
  • 251851Z 15006KT 10SM BKN048 BKN060 29/17 A3010 RMK AO2 SLP191 T02890167

METARs EXPIRÉS :
  • 251751Z VRB03KT 10SM SCT046 29/19 A3011 RMK AO2 SLP194 T02890189 10294 20183 58008
  • 251651Z VRB03KT 10SM SCT045 28/19 A3012 RMK AO2 SLP198 T02780189

TAF KPIT
Valide du 25 à 18h jusqu'au 27 à 00h UTC


251727Z 2518/2624 18005KT P6SM SCT045
FM260100 15004KT P6SM SCT200
FM261600 13003KT P6SM SCT050
FIR KZOB / Amérique du Nord



MET'MAP, la Météo Aéronautique d'un coup d'oeil ! - Copyright ORBIFLY Décembre 2007 - Disclaimer

ORBIFLY MET'MAP TEAM :

Programmation & Développement : Alexandra Zaïnal
Sur une idée originale de : Baudouin d'Aumeries
Assistance à la programmation : Marc-Olivier Méhu
Soutien technique & logistique : Manuel Goepfert

Contact : metmap@orbifly.com




SOURCES & CREDITS :

   NOAA       Earth
Advisory